sensor_id;sensor_type;location;lat;lon;timestamp;P1;durP1;ratioP1;P2;durP2;ratioP2
78646;SDS011;67961;43.460;3.762;2023-08-30T11:21:24;4.18;;;3.05;;
78646;SDS011;67961;43.460;3.762;2023-08-30T11:23:51;3.67;;;2.72;;
78646;SDS011;67961;43.460;3.762;2023-08-30T11:26:16;4.13;;;2.95;;
78646;SDS011;67961;43.460;3.762;2023-08-30T11:28:42;3.60;;;2.75;;
78646;SDS011;67961;43.460;3.762;2023-08-30T11:31:17;3.90;;;2.78;;
78646;SDS011;67961;43.460;3.762;2023-08-30T11:36:20;4.40;;;3.00;;
78646;SDS011;67961;43.460;3.762;2023-08-30T11:38:47;3.22;;;2.67;;
78646;SDS011;67961;43.460;3.762;2023-08-30T11:41:16;3.92;;;2.95;;
78646;SDS011;67961;43.460;3.762;2023-08-30T11:43:42;6.03;;;2.65;;
78646;SDS011;67961;43.460;3.762;2023-08-30T11:46:08;4.95;;;2.55;;
78646;SDS011;67961;43.460;3.762;2023-08-30T11:48:35;4.95;;;3.30;;
78646;SDS011;67961;43.460;3.762;2023-08-30T11:51:01;5.00;;;2.90;;
78646;SDS011;67961;43.460;3.762;2023-08-30T11:53:27;4.10;;;2.83;;
78646;SDS011;67961;43.460;3.762;2023-08-30T11:55:53;4.07;;;2.97;;
78646;SDS011;67961;43.460;3.762;2023-08-30T11:58:19;4.93;;;2.65;;
78646;SDS011;67961;43.460;3.762;2023-08-30T12:00:45;5.82;;;3.28;;
78646;SDS011;67961;43.460;3.762;2023-08-30T12:03:14;3.90;;;3.08;;
78646;SDS011;67961;43.460;3.762;2023-08-30T12:05:44;5.15;;;3.03;;
78646;SDS011;67961;43.460;3.762;2023-08-30T12:08:17;3.70;;;3.00;;
78646;SDS011;67961;43.460;3.762;2023-08-30T12:10:48;3.33;;;2.67;;
78646;SDS011;67961;43.460;3.762;2023-08-30T12:13:26;4.78;;;3.10;;
78646;SDS011;67961;43.460;3.762;2023-08-30T12:15:52;4.63;;;3.13;;
78646;SDS011;67961;43.460;3.762;2023-08-30T12:18:24;4.43;;;3.40;;
78646;SDS011;67961;43.460;3.762;2023-08-30T12:20:55;3.67;;;2.53;;
78646;SDS011;67961;43.460;3.762;2023-08-30T12:23:22;6.13;;;2.83;;
78646;SDS011;67961;43.460;3.762;2023-08-30T12:26:10;5.53;;;2.80;;
78646;SDS011;67961;43.460;3.762;2023-08-30T12:28:36;3.63;;;2.90;;
78646;SDS011;67961;43.460;3.762;2023-08-30T12:31:02;4.97;;;3.10;;
78646;SDS011;67961;43.460;3.762;2023-08-30T12:33:29;3.55;;;2.83;;
78646;SDS011;67961;43.460;3.762;2023-08-30T12:35:55;3.80;;;2.97;;
78646;SDS011;67961;43.460;3.762;2023-08-30T12:38:22;4.05;;;3.15;;
78646;SDS011;67961;43.460;3.762;2023-08-30T12:40:52;4.50;;;3.30;;
78646;SDS011;67961;43.460;3.762;2023-08-30T12:43:19;3.45;;;2.75;;
78646;SDS011;67961;43.460;3.762;2023-08-30T12:45:46;2.88;;;2.50;;
78646;SDS011;67961;43.460;3.762;2023-08-30T12:48:13;3.10;;;2.67;;
78646;SDS011;67961;43.460;3.762;2023-08-30T12:50:40;5.38;;;3.60;;
78646;SDS011;67961;43.460;3.762;2023-08-30T12:53:07;6.28;;;3.53;;
78646;SDS011;67961;43.460;3.762;2023-08-30T12:55:33;4.35;;;3.28;;
78646;SDS011;67961;43.460;3.762;2023-08-30T12:58:05;3.85;;;3.03;;
78646;SDS011;67961;43.460;3.762;2023-08-30T13:00:32;3.45;;;2.72;;
78646;SDS011;67961;43.460;3.762;2023-08-30T13:02:58;7.38;;;4.13;;
78646;SDS011;67961;43.460;3.762;2023-08-30T13:05:24;4.20;;;2.97;;
78646;SDS011;67961;43.460;3.762;2023-08-30T13:07:49;5.18;;;3.00;;
78646;SDS011;67961;43.460;3.762;2023-08-30T13:10:15;6.93;;;2.78;;
78646;SDS011;67961;43.460;3.762;2023-08-30T13:12:41;5.07;;;3.28;;
78646;SDS011;67961;43.460;3.762;2023-08-30T13:15:08;3.55;;;2.85;;
78646;SDS011;67961;43.460;3.762;2023-08-30T13:17:34;3.90;;;3.15;;
78646;SDS011;67961;43.460;3.762;2023-08-30T13:20:00;6.00;;;3.00;;
78646;SDS011;67961;43.460;3.762;2023-08-30T13:22:26;4.25;;;3.10;;
78646;SDS011;67961;43.460;3.762;2023-08-30T13:24:52;4.80;;;3.05;;
78646;SDS011;67961;43.460;3.762;2023-08-30T13:27:18;4.30;;;3.13;;
78646;SDS011;67961;43.460;3.762;2023-08-30T13:29:44;7.68;;;3.88;;
78646;SDS011;67961;43.460;3.762;2023-08-30T13:32:10;6.30;;;3.22;;
78646;SDS011;67961;43.460;3.762;2023-08-30T13:34:36;6.72;;;3.47;;
78646;SDS011;67961;43.460;3.762;2023-08-30T13:37:02;4.57;;;3.30;;
78646;SDS011;67961;43.460;3.762;2023-08-30T13:39:28;4.75;;;2.72;;
78646;SDS011;67961;43.460;3.762;2023-08-30T13:41:54;4.35;;;3.13;;
78646;SDS011;67961;43.460;3.762;2023-08-30T13:44:19;4.90;;;3.33;;
78646;SDS011;67961;43.460;3.762;2023-08-30T13:46:45;3.90;;;2.88;;
78646;SDS011;67961;43.460;3.762;2023-08-30T13:49:14;5.10;;;3.60;;
78646;SDS011;67961;43.460;3.762;2023-08-30T13:51:44;5.40;;;2.83;;
78646;SDS011;67961;43.460;3.762;2023-08-30T13:54:10;4.47;;;3.08;;
78646;SDS011;67961;43.460;3.762;2023-08-30T13:56:36;4.03;;;3.13;;
78646;SDS011;67961;43.460;3.762;2023-08-30T13:59:03;3.80;;;2.97;;
78646;SDS011;67961;43.460;3.762;2023-08-30T14:01:31;8.00;;;2.92;;
78646;SDS011;67961;43.460;3.762;2023-08-30T14:03:57;6.43;;;3.13;;
78646;SDS011;67961;43.460;3.762;2023-08-30T14:06:22;6.82;;;3.17;;
78646;SDS011;67961;43.460;3.762;2023-08-30T14:08:48;6.95;;;2.97;;
78646;SDS011;67961;43.460;3.762;2023-08-30T14:11:14;4.82;;;2.92;;
78646;SDS011;67961;43.460;3.762;2023-08-30T14:13:40;7.03;;;3.00;;
78646;SDS011;67961;43.460;3.762;2023-08-30T14:16:05;5.55;;;3.25;;
78646;SDS011;67961;43.460;3.762;2023-08-30T14:18:31;2.83;;;2.40;;
78646;SDS011;67961;43.460;3.762;2023-08-30T14:21:00;4.25;;;2.70;;
78646;SDS011;67961;43.460;3.762;2023-08-30T14:23:26;3.95;;;2.72;;
78646;SDS011;67961;43.460;3.762;2023-08-30T14:25:55;4.70;;;2.90;;
78646;SDS011;67961;43.460;3.762;2023-08-30T14:28:25;5.75;;;3.13;;
78646;SDS011;67961;43.460;3.762;2023-08-30T14:30:51;6.40;;;2.92;;
78646;SDS011;67961;43.460;3.762;2023-08-30T14:33:17;3.72;;;2.65;;
78646;SDS011;67961;43.460;3.762;2023-08-30T14:35:43;6.38;;;3.03;;
78646;SDS011;67961;43.460;3.762;2023-08-30T14:38:09;5.25;;;2.92;;
78646;SDS011;67961;43.460;3.762;2023-08-30T14:40:35;4.10;;;2.85;;
78646;SDS011;67961;43.460;3.762;2023-08-30T14:43:02;5.97;;;3.00;;
78646;SDS011;67961;43.460;3.762;2023-08-30T14:45:28;3.42;;;2.65;;
78646;SDS011;67961;43.460;3.762;2023-08-30T14:47:54;4.93;;;3.10;;
78646;SDS011;67961;43.460;3.762;2023-08-30T14:50:20;4.32;;;2.90;;
78646;SDS011;67961;43.460;3.762;2023-08-30T14:52:45;3.60;;;2.80;;
78646;SDS011;67961;43.460;3.762;2023-08-30T14:55:11;5.38;;;3.53;;
78646;SDS011;67961;43.460;3.762;2023-08-30T14:57:37;5.15;;;3.15;;
78646;SDS011;67961;43.460;3.762;2023-08-30T15:00:03;5.50;;;2.90;;
78646;SDS011;67961;43.460;3.762;2023-08-30T15:02:30;3.97;;;2.83;;
78646;SDS011;67961;43.460;3.762;2023-08-30T15:04:56;3.53;;;2.83;;
78646;SDS011;67961;43.460;3.762;2023-08-30T15:07:22;3.13;;;2.58;;
78646;SDS011;67961;43.460;3.762;2023-08-30T15:09:47;4.82;;;3.03;;
78646;SDS011;67961;43.460;3.762;2023-08-30T15:12:14;5.32;;;3.42;;
78646;SDS011;67961;43.460;3.762;2023-08-30T15:14:40;5.18;;;3.00;;
78646;SDS011;67961;43.460;3.762;2023-08-30T15:17:07;3.67;;;2.90;;
78646;SDS011;67961;43.460;3.762;2023-08-30T15:19:32;3.08;;;2.50;;
78646;SDS011;67961;43.460;3.762;2023-08-30T15:21:58;6.35;;;3.70;;
78646;SDS011;67961;43.460;3.762;2023-08-30T15:24:24;4.40;;;3.15;;
78646;SDS011;67961;43.460;3.762;2023-08-30T15:26:50;4.78;;;3.33;;
78646;SDS011;67961;43.460;3.762;2023-08-30T15:29:16;4.72;;;3.20;;
78646;SDS011;67961;43.460;3.762;2023-08-30T15:31:41;4.93;;;3.03;;
78646;SDS011;67961;43.460;3.762;2023-08-30T15:34:08;18.27;;;3.63;;
78646;SDS011;67961;43.460;3.762;2023-08-30T15:36:33;4.30;;;3.10;;
78646;SDS011;67961;43.460;3.762;2023-08-30T15:38:59;5.85;;;2.88;;
78646;SDS011;67961;43.460;3.762;2023-08-30T15:41:25;3.58;;;2.92;;
78646;SDS011;67961;43.460;3.762;2023-08-30T15:43:51;6.70;;;2.80;;
78646;SDS011;67961;43.460;3.762;2023-08-30T15:46:16;5.82;;;3.60;;
78646;SDS011;67961;43.460;3.762;2023-08-30T15:48:42;7.30;;;3.17;;
78646;SDS011;67961;43.460;3.762;2023-08-30T15:51:08;5.07;;;3.30;;
78646;SDS011;67961;43.460;3.762;2023-08-30T15:53:34;4.22;;;3.10;;
78646;SDS011;67961;43.460;3.762;2023-08-30T15:56:00;4.82;;;3.20;;
78646;SDS011;67961;43.460;3.762;2023-08-30T15:58:26;4.85;;;3.60;;
78646;SDS011;67961;43.460;3.762;2023-08-30T16:00:52;6.97;;;3.22;;
78646;SDS011;67961;43.460;3.762;2023-08-30T16:03:17;4.57;;;2.92;;
78646;SDS011;67961;43.460;3.762;2023-08-30T16:05:43;5.40;;;3.13;;
78646;SDS011;67961;43.460;3.762;2023-08-30T16:08:09;5.18;;;3.85;;
78646;SDS011;67961;43.460;3.762;2023-08-30T16:10:36;3.90;;;2.80;;
78646;SDS011;67961;43.460;3.762;2023-08-30T16:13:02;4.40;;;3.28;;
78646;SDS011;67961;43.460;3.762;2023-08-30T16:15:28;4.25;;;3.08;;
78646;SDS011;67961;43.460;3.762;2023-08-30T16:17:57;7.07;;;3.53;;
78646;SDS011;67961;43.460;3.762;2023-08-30T16:20:22;5.88;;;3.45;;
78646;SDS011;67961;43.460;3.762;2023-08-30T16:22:52;6.50;;;3.22;;
78646;SDS011;67961;43.460;3.762;2023-08-30T16:25:18;5.40;;;3.15;;
78646;SDS011;67961;43.460;3.762;2023-08-30T16:27:44;4.32;;;2.72;;
78646;SDS011;67961;43.460;3.762;2023-08-30T16:30:09;6.20;;;3.42;;
78646;SDS011;67961;43.460;3.762;2023-08-30T16:32:36;4.07;;;3.10;;
78646;SDS011;67961;43.460;3.762;2023-08-30T16:35:01;6.80;;;3.53;;
78646;SDS011;67961;43.460;3.762;2023-08-30T16:37:27;7.43;;;3.20;;
78646;SDS011;67961;43.460;3.762;2023-08-30T16:39:53;4.25;;;3.05;;
78646;SDS011;67961;43.460;3.762;2023-08-30T16:42:19;8.25;;;3.67;;
78646;SDS011;67961;43.460;3.762;2023-08-30T16:44:45;5.50;;;3.30;;
78646;SDS011;67961;43.460;3.762;2023-08-30T16:47:11;5.00;;;3.60;;
78646;SDS011;67961;43.460;3.762;2023-08-30T16:49:37;6.43;;;3.22;;
78646;SDS011;67961;43.460;3.762;2023-08-30T16:52:02;7.18;;;3.80;;
78646;SDS011;67961;43.460;3.762;2023-08-30T16:54:28;5.70;;;3.90;;
78646;SDS011;67961;43.460;3.762;2023-08-30T16:56:54;9.32;;;5.30;;
78646;SDS011;67961;43.460;3.762;2023-08-30T16:59:20;10.68;;;4.75;;
78646;SDS011;67961;43.460;3.762;2023-08-30T17:01:48;12.52;;;5.25;;
78646;SDS011;67961;43.460;3.762;2023-08-30T17:04:15;9.55;;;4.32;;
78646;SDS011;67961;43.460;3.762;2023-08-30T17:06:41;6.97;;;3.92;;
78646;SDS011;67961;43.460;3.762;2023-08-30T17:09:08;8.43;;;4.97;;
78646;SDS011;67961;43.460;3.762;2023-08-30T17:11:33;7.25;;;3.72;;
78646;SDS011;67961;43.460;3.762;2023-08-30T17:14:00;5.22;;;3.35;;
78646;SDS011;67961;43.460;3.762;2023-08-30T17:16:26;6.47;;;3.50;;
78646;SDS011;67961;43.460;3.762;2023-08-30T17:18:52;5.70;;;3.45;;
78646;SDS011;67961;43.460;3.762;2023-08-30T17:21:18;5.30;;;3.53;;
78646;SDS011;67961;43.460;3.762;2023-08-30T17:23:44;5.13;;;3.38;;
78646;SDS011;67961;43.460;3.762;2023-08-30T17:26:09;8.55;;;3.47;;
78646;SDS011;67961;43.460;3.762;2023-08-30T17:28:35;7.70;;;3.83;;
78646;SDS011;67961;43.460;3.762;2023-08-30T17:31:01;7.20;;;3.33;;
78646;SDS011;67961;43.460;3.762;2023-08-30T17:33:27;8.68;;;3.58;;
78646;SDS011;67961;43.460;3.762;2023-08-30T17:35:56;5.13;;;3.28;;
78646;SDS011;67961;43.460;3.762;2023-08-30T17:38:22;7.28;;;3.40;;
78646;SDS011;67961;43.460;3.762;2023-08-30T17:40:47;7.40;;;3.00;;
78646;SDS011;67961;43.460;3.762;2023-08-30T17:43:13;5.32;;;3.75;;
78646;SDS011;67961;43.460;3.762;2023-08-30T17:45:39;8.82;;;3.90;;
78646;SDS011;67961;43.460;3.762;2023-08-30T17:48:05;6.13;;;3.35;;
78646;SDS011;67961;43.460;3.762;2023-08-30T17:50:31;6.35;;;3.80;;
78646;SDS011;67961;43.460;3.762;2023-08-30T17:52:57;5.20;;;3.47;;
78646;SDS011;67961;43.460;3.762;2023-08-30T17:55:22;7.38;;;4.75;;
78646;SDS011;67961;43.460;3.762;2023-08-30T17:57:48;6.28;;;3.90;;
78646;SDS011;67961;43.460;3.762;2023-08-30T18:00:14;9.05;;;4.10;;
78646;SDS011;67961;43.460;3.762;2023-08-30T18:02:49;4.75;;;3.42;;
78646;SDS011;67961;43.460;3.762;2023-08-30T18:05:15;4.82;;;3.35;;
78646;SDS011;67961;43.460;3.762;2023-08-30T18:07:41;4.97;;;3.13;;
78646;SDS011;67961;43.460;3.762;2023-08-30T18:10:09;4.15;;;3.10;;
78646;SDS011;67961;43.460;3.762;2023-08-30T18:12:35;4.70;;;3.00;;
78646;SDS011;67961;43.460;3.762;2023-08-30T18:15:01;5.70;;;3.13;;
78646;SDS011;67961;43.460;3.762;2023-08-30T18:17:28;7.10;;;3.67;;
78646;SDS011;67961;43.460;3.762;2023-08-30T18:19:54;4.88;;;3.47;;
78646;SDS011;67961;43.460;3.762;2023-08-30T18:22:20;4.28;;;3.35;;
78646;SDS011;67961;43.460;3.762;2023-08-30T18:24:47;5.55;;;3.40;;
78646;SDS011;67961;43.460;3.762;2023-08-30T18:27:13;4.95;;;3.45;;
78646;SDS011;67961;43.460;3.762;2023-08-30T18:29:42;5.53;;;3.42;;
78646;SDS011;67961;43.460;3.762;2023-08-30T18:32:10;4.93;;;3.25;;
78646;SDS011;67961;43.460;3.762;2023-08-30T18:34:37;4.43;;;3.35;;
78646;SDS011;67961;43.460;3.762;2023-08-30T18:37:04;4.78;;;3.33;;
78646;SDS011;67961;43.460;3.762;2023-08-30T18:39:30;5.32;;;4.10;;
78646;SDS011;67961;43.460;3.762;2023-08-30T18:41:56;4.45;;;3.40;;
78646;SDS011;67961;43.460;3.762;2023-08-30T18:44:22;5.40;;;3.50;;
78646;SDS011;67961;43.460;3.762;2023-08-30T18:46:48;5.22;;;3.20;;
78646;SDS011;67961;43.460;3.762;2023-08-30T18:49:14;6.00;;;3.10;;
78646;SDS011;67961;43.460;3.762;2023-08-30T18:51:40;4.82;;;3.35;;
78646;SDS011;67961;43.460;3.762;2023-08-30T18:54:05;4.20;;;3.25;;
78646;SDS011;67961;43.460;3.762;2023-08-30T18:56:31;4.95;;;3.40;;
78646;SDS011;67961;43.460;3.762;2023-08-30T18:58:58;9.30;;;5.38;;
78646;SDS011;67961;43.460;3.762;2023-08-30T19:01:23;24.02;;;9.00;;
78646;SDS011;67961;43.460;3.762;2023-08-30T19:03:53;15.88;;;7.85;;
78646;SDS011;67961;43.460;3.762;2023-08-30T19:06:19;17.88;;;6.95;;
78646;SDS011;67961;43.460;3.762;2023-08-30T19:08:45;14.32;;;5.82;;
78646;SDS011;67961;43.460;3.762;2023-08-30T19:13:30;19.73;;;7.32;;
78646;SDS011;67961;43.460;3.762;2023-08-30T19:15:57;9.52;;;4.55;;
78646;SDS011;67961;43.460;3.762;2023-08-30T19:18:23;9.55;;;5.00;;
78646;SDS011;67961;43.460;3.762;2023-08-30T19:20:58;9.02;;;5.20;;
78646;SDS011;67961;43.460;3.762;2023-08-30T19:23:25;6.68;;;3.47;;
78646;SDS011;67961;43.460;3.762;2023-08-30T19:25:53;7.45;;;4.25;;
78646;SDS011;67961;43.460;3.762;2023-08-30T19:28:19;6.80;;;3.63;;
78646;SDS011;67961;43.460;3.762;2023-08-30T19:30:49;6.13;;;3.55;;
78646;SDS011;67961;43.460;3.762;2023-08-30T19:33:18;7.50;;;4.63;;
78646;SDS011;67961;43.460;3.762;2023-08-30T19:35:44;7.90;;;4.13;;
78646;SDS011;67961;43.460;3.762;2023-08-30T19:38:11;8.23;;;3.85;;
78646;SDS011;67961;43.460;3.762;2023-08-30T19:40:37;6.43;;;3.60;;
78646;SDS011;67961;43.460;3.762;2023-08-30T19:43:03;4.38;;;2.88;;
78646;SDS011;67961;43.460;3.762;2023-08-30T19:45:29;3.83;;;2.70;;
78646;SDS011;67961;43.460;3.762;2023-08-30T19:47:55;4.43;;;2.95;;
78646;SDS011;67961;43.460;3.762;2023-08-30T19:50:21;5.35;;;3.03;;
78646;SDS011;67961;43.460;3.762;2023-08-30T19:52:47;3.90;;;2.92;;
78646;SDS011;67961;43.460;3.762;2023-08-30T19:55:14;4.15;;;2.80;;
78646;SDS011;67961;43.460;3.762;2023-08-30T19:57:40;5.55;;;2.75;;
78646;SDS011;67961;43.460;3.762;2023-08-30T20:00:08;3.70;;;2.83;;
78646;SDS011;67961;43.460;3.762;2023-08-30T20:02:35;3.53;;;2.70;;
78646;SDS011;67961;43.460;3.762;2023-08-30T20:05:02;4.10;;;2.80;;
78646;SDS011;67961;43.460;3.762;2023-08-30T20:07:29;4.30;;;2.70;;
78646;SDS011;67961;43.460;3.762;2023-08-30T20:09:55;7.85;;;3.30;;
78646;SDS011;67961;43.460;3.762;2023-08-30T20:12:22;3.88;;;2.60;;
78646;SDS011;67961;43.460;3.762;2023-08-30T20:14:48;5.22;;;2.67;;
78646;SDS011;67961;43.460;3.762;2023-08-30T20:17:15;3.58;;;2.50;;
78646;SDS011;67961;43.460;3.762;2023-08-30T20:19:41;4.32;;;2.60;;
78646;SDS011;67961;43.460;3.762;2023-08-30T20:22:07;4.15;;;2.50;;
78646;SDS011;67961;43.460;3.762;2023-08-30T20:24:33;4.15;;;2.50;;
78646;SDS011;67961;43.460;3.762;2023-08-30T20:26:59;3.90;;;2.75;;
78646;SDS011;67961;43.460;3.762;2023-08-30T20:29:24;4.03;;;2.50;;
78646;SDS011;67961;43.460;3.762;2023-08-30T20:31:50;2.88;;;2.35;;
78646;SDS011;67961;43.460;3.762;2023-08-30T20:34:16;4.25;;;2.78;;
78646;SDS011;67961;43.460;3.762;2023-08-30T20:36:43;3.88;;;2.92;;
78646;SDS011;67961;43.460;3.762;2023-08-30T20:39:09;2.72;;;2.40;;
78646;SDS011;67961;43.460;3.762;2023-08-30T20:41:35;4.75;;;2.90;;
78646;SDS011;67961;43.460;3.762;2023-08-30T20:44:01;4.22;;;2.50;;
78646;SDS011;67961;43.460;3.762;2023-08-30T20:46:28;3.50;;;2.60;;
78646;SDS011;67961;43.460;3.762;2023-08-30T20:48:54;3.92;;;2.60;;
78646;SDS011;67961;43.460;3.762;2023-08-30T20:51:20;2.97;;;2.28;;
78646;SDS011;67961;43.460;3.762;2023-08-30T20:53:45;3.70;;;2.65;;
78646;SDS011;67961;43.460;3.762;2023-08-30T20:56:12;3.45;;;2.50;;
78646;SDS011;67961;43.460;3.762;2023-08-30T20:58:39;4.20;;;2.63;;
78646;SDS011;67961;43.460;3.762;2023-08-30T21:01:09;3.17;;;2.35;;
78646;SDS011;67961;43.460;3.762;2023-08-30T21:03:39;3.92;;;2.55;;
78646;SDS011;67961;43.460;3.762;2023-08-30T21:06:06;4.30;;;2.85;;
78646;SDS011;67961;43.460;3.762;2023-08-30T21:08:35;3.88;;;2.58;;
78646;SDS011;67961;43.460;3.762;2023-08-30T21:11:01;3.28;;;2.42;;
78646;SDS011;67961;43.460;3.762;2023-08-30T21:13:28;3.47;;;2.40;;
78646;SDS011;67961;43.460;3.762;2023-08-30T21:15:53;4.90;;;3.03;;
78646;SDS011;67961;43.460;3.762;2023-08-30T21:18:19;3.35;;;2.85;;
78646;SDS011;67961;43.460;3.762;2023-08-30T21:20:45;3.05;;;2.63;;
78646;SDS011;67961;43.460;3.762;2023-08-30T21:23:10;3.47;;;2.45;;
78646;SDS011;67961;43.460;3.762;2023-08-30T21:25:37;3.72;;;2.60;;
78646;SDS011;67961;43.460;3.762;2023-08-30T21:28:04;3.67;;;2.67;;
78646;SDS011;67961;43.460;3.762;2023-08-30T21:30:31;5.63;;;2.80;;
78646;SDS011;67961;43.460;3.762;2023-08-30T21:33:05;3.45;;;2.33;;
78646;SDS011;67961;43.460;3.762;2023-08-30T21:35:35;3.08;;;2.38;;
78646;SDS011;67961;43.460;3.762;2023-08-30T21:38:05;4.82;;;2.80;;
78646;SDS011;67961;43.460;3.762;2023-08-30T21:40:33;3.85;;;2.55;;
78646;SDS011;67961;43.460;3.762;2023-08-30T21:42:58;4.65;;;2.65;;
78646;SDS011;67961;43.460;3.762;2023-08-30T21:45:24;3.75;;;2.85;;
78646;SDS011;67961;43.460;3.762;2023-08-30T21:47:50;4.68;;;2.80;;
78646;SDS011;67961;43.460;3.762;2023-08-30T21:50:16;3.95;;;2.60;;
78646;SDS011;67961;43.460;3.762;2023-08-30T21:52:41;5.70;;;2.38;;
78646;SDS011;67961;43.460;3.762;2023-08-30T21:55:09;4.90;;;3.15;;
78646;SDS011;67961;43.460;3.762;2023-08-30T21:57:36;4.47;;;2.60;;
78646;SDS011;67961;43.460;3.762;2023-08-30T22:00:02;3.28;;;2.40;;
78646;SDS011;67961;43.460;3.762;2023-08-30T22:02:33;3.80;;;2.63;;
78646;SDS011;67961;43.460;3.762;2023-08-30T22:04:59;2.45;;;2.25;;
78646;SDS011;67961;43.460;3.762;2023-08-30T22:07:24;3.17;;;2.33;;
78646;SDS011;67961;43.460;3.762;2023-08-30T22:09:50;3.80;;;2.72;;
78646;SDS011;67961;43.460;3.762;2023-08-30T22:12:15;4.10;;;2.80;;
78646;SDS011;67961;43.460;3.762;2023-08-30T22:14:44;3.15;;;2.20;;
78646;SDS011;67961;43.460;3.762;2023-08-30T22:17:10;3.97;;;2.70;;
78646;SDS011;67961;43.460;3.762;2023-08-30T22:19:36;4.03;;;2.58;;
78646;SDS011;67961;43.460;3.762;2023-08-30T22:22:01;3.15;;;2.45;;
78646;SDS011;67961;43.460;3.762;2023-08-30T22:24:27;3.88;;;2.60;;
78646;SDS011;67961;43.460;3.762;2023-08-30T22:26:54;3.42;;;2.40;;
78646;SDS011;67961;43.460;3.762;2023-08-30T22:29:20;3.28;;;2.35;;
78646;SDS011;67961;43.460;3.762;2023-08-30T22:31:46;3.25;;;2.25;;
78646;SDS011;67961;43.460;3.762;2023-08-30T22:34:12;2.55;;;2.25;;
78646;SDS011;67961;43.460;3.762;2023-08-30T22:36:38;2.08;;;1.88;;
78646;SDS011;67961;43.460;3.762;2023-08-30T22:39:04;3.65;;;2.42;;
78646;SDS011;67961;43.460;3.762;2023-08-30T22:41:30;3.65;;;2.50;;
78646;SDS011;67961;43.460;3.762;2023-08-30T22:43:58;3.42;;;2.38;;
78646;SDS011;67961;43.460;3.762;2023-08-30T22:46:24;3.85;;;2.75;;
78646;SDS011;67961;43.460;3.762;2023-08-30T22:48:50;2.78;;;2.28;;
78646;SDS011;67961;43.460;3.762;2023-08-30T22:51:15;3.65;;;2.53;;
78646;SDS011;67961;43.460;3.762;2023-08-30T22:53:44;4.38;;;2.45;;
78646;SDS011;67961;43.460;3.762;2023-08-30T22:56:10;4.43;;;2.88;;
78646;SDS011;67961;43.460;3.762;2023-08-30T22:58:37;3.90;;;2.38;;
78646;SDS011;67961;43.460;3.762;2023-08-30T23:01:05;5.80;;;2.40;;
78646;SDS011;67961;43.460;3.762;2023-08-30T23:03:32;5.97;;;2.20;;
78646;SDS011;67961;43.460;3.762;2023-08-30T23:05:59;3.35;;;1.90;;
78646;SDS011;67961;43.460;3.762;2023-08-30T23:08:31;3.35;;;2.00;;
78646;SDS011;67961;43.460;3.762;2023-08-30T23:10:57;2.93;;;2.27;;
78646;SDS011;67961;43.460;3.762;2023-08-30T23:13:23;2.10;;;1.88;;
78646;SDS011;67961;43.460;3.762;2023-08-30T23:15:49;2.45;;;2.10;;
78646;SDS011;67961;43.460;3.762;2023-08-30T23:18:15;2.35;;;1.88;;
78646;SDS011;67961;43.460;3.762;2023-08-30T23:20:41;2.42;;;1.60;;
78646;SDS011;67961;43.460;3.762;2023-08-30T23:23:08;3.50;;;1.85;;
78646;SDS011;67961;43.460;3.762;2023-08-30T23:25:37;2.83;;;2.30;;
78646;SDS011;67961;43.460;3.762;2023-08-30T23:28:03;4.45;;;2.00;;
78646;SDS011;67961;43.460;3.762;2023-08-30T23:30:30;3.15;;;2.25;;
78646;SDS011;67961;43.460;3.762;2023-08-30T23:32:56;2.03;;;1.83;;
78646;SDS011;67961;43.460;3.762;2023-08-30T23:35:22;2.05;;;1.73;;
78646;SDS011;67961;43.460;3.762;2023-08-30T23:37:48;2.45;;;1.98;;
78646;SDS011;67961;43.460;3.762;2023-08-30T23:40:14;3.67;;;2.17;;
78646;SDS011;67961;43.460;3.762;2023-08-30T23:42:40;2.72;;;1.90;;
78646;SDS011;67961;43.460;3.762;2023-08-30T23:45:07;4.28;;;2.00;;
78646;SDS011;67961;43.460;3.762;2023-08-30T23:47:33;3.70;;;1.83;;
78646;SDS011;67961;43.460;3.762;2023-08-30T23:49:59;2.22;;;1.65;;
78646;SDS011;67961;43.460;3.762;2023-08-30T23:52:25;1.73;;;1.60;;
78646;SDS011;67961;43.460;3.762;2023-08-30T23:54:54;2.83;;;1.75;;
78646;SDS011;67961;43.460;3.762;2023-08-30T23:57:21;5.03;;;2.00;;
78646;SDS011;67961;43.460;3.762;2023-08-30T23:59:47;2.55;;;1.80;;
